Time;durP1;ratioP1;P1;durP2;ratioP2;P2;SDS_P1;SDS_P2;PMS_P1;PMS_P2;Temp;Humidity;BMP_temperature;BMP_pressure;BME280_temperature;BME280_humidity;BME280_pressure;Samples;Min_cycle;Max_cycle;Signal;HPM_P1;HPM_P2
2024/03/29 01:43:31;;;;;;;3.63;0.52;;;;;;;8.33;100.00;99148.66;6231180;28;20045;-79
2024/03/29 01:46:37;;;;;;;2.53;0.65;;;;;;;8.26;100.00;99153.47;6251833;28;20041;-79
2024/03/29 01:49:39;;;;;;;0.50;0.47;;;;;;;8.19;100.00;99152.22;6251928;28;20049;-79
2024/03/29 01:52:41;;;;;;;2.63;0.50;;;;;;;8.14;100.00;99157.78;6245870;28;20427;-76
2024/03/29 01:55:42;;;;;;;0.60;0.38;;;;;;;8.15;100.00;99150.75;6238246;28;20045;-78
2024/03/29 01:58:45;;;;;;;1.20;0.30;;;;;;;8.11;100.00;99167.63;6235277;28;20057;-77
2024/03/29 02:01:49;;;;;;;3.17;0.50;;;;;;;8.06;100.00;99170.53;6240519;28;20046;-78
2024/03/29 02:04:50;;;;;;;1.77;0.35;;;;;;;8.00;100.00;99170.13;6251575;28;20495;-77
2024/03/29 02:07:52;;;;;;;2.38;0.60;;;;;;;7.99;100.00;99171.06;6248416;28;20053;-77
2024/03/29 02:10:53;;;;;;;1.48;0.40;;;;;;;8.04;100.00;99174.19;6246257;28;20052;-77
2024/03/29 02:13:55;;;;;;;3.50;0.80;;;;;;;7.99;100.00;99174.50;6236208;28;20041;-76
2024/03/29 02:16:57;;;;;;;0.98;0.32;;;;;;;7.96;100.00;99174.75;6248611;28;20045;-77
2024/03/29 02:19:59;;;;;;;1.17;0.60;;;;;;;7.92;100.00;99180.28;6232526;28;20052;-77
2024/03/29 02:23:08;;;;;;;0.68;0.63;;;;;;;7.88;100.00;99172.63;6232428;28;20045;-77
2024/03/29 02:26:11;;;;;;;;;;;;;;;7.95;100.00;99174.81;6248453;28;20049;-79
2024/03/29 02:29:13;;;;;;;2.90;0.60;;;;;;;7.93;100.00;99161.03;6251400;28;19921;-77
2024/03/29 02:32:14;;;;;;;2.80;0.57;;;;;;;7.86;100.00;99155.38;6230513;28;20173;-77
2024/03/29 02:35:15;;;;;;;3.70;0.40;;;;;;;7.84;100.00;99149.41;6248609;28;20049;-79
2024/03/29 02:38:17;;;;;;;1.80;0.50;;;;;;;7.85;100.00;99148.47;6242815;28;20068;-78
2024/03/29 02:41:20;;;;;;;3.22;0.40;;;;;;;7.88;100.00;99146.47;6250565;28;20045;-77
2024/03/29 02:44:21;;;;;;;3.10;0.55;;;;;;;7.86;100.00;99152.78;6237466;28;20041;-77
2024/03/29 02:47:23;;;;;;;2.53;0.25;;;;;;;7.81;100.00;99144.38;6248835;28;20041;-78
2024/03/29 02:50:23;;;;;;;1.77;0.22;;;;;;;7.82;100.00;99146.91;6249122;28;20573;-77
2024/03/29 02:53:25;;;;;;;2.15;0.50;;;;;;;7.80;100.00;99137.47;6250484;28;20048;-77
2024/03/29 02:56:27;;;;;;;2.10;0.38;;;;;;;7.74;100.00;99116.97;6250591;28;20049;-77
2024/03/29 02:59:28;;;;;;;1.73;1.02;;;;;;;7.74;100.00;99107.34;6249582;28;20453;-77
2024/03/29 03:02:29;;;;;;;1.25;0.40;;;;;;;7.71;100.00;99086.63;6229236;28;20054;-78
2024/03/29 03:05:30;;;;;;;6.45;0.50;;;;;;;7.73;100.00;99087.38;6239329;28;20046;-78
2024/03/29 03:11:52;;;;;;;;;;;;;;;7.72;100.00;99090.09;6248693;28;20050;-79
2024/03/29 03:14:54;;;;;;;0.93;0.40;;;;;;;7.83;100.00;99098.06;6244823;28;19929;-78
2024/03/29 03:17:54;;;;;;;1.60;0.30;;;;;;;7.82;100.00;99093.78;6250300;28;20045;-78
2024/03/29 03:20:57;;;;;;;1.27;0.45;;;;;;;7.76;100.00;99102.00;6249907;28;20045;-78
2024/03/29 03:23:59;;;;;;;5.13;0.50;;;;;;;7.76;100.00;99113.31;6250086;28;20365;-79
2024/03/29 03:27:00;;;;;;;1.10;0.30;;;;;;;7.84;100.00;99108.41;6237542;28;20053;-79
2024/03/29 03:30:02;;;;;;;4.70;0.45;;;;;;;7.94;100.00;99113.81;6240530;28;20041;-78
2024/03/29 03:33:03;;;;;;;1.58;0.80;;;;;;;7.93;100.00;99117.41;6241878;28;20458;-78
2024/03/29 03:36:04;;;;;;;2.08;0.40;;;;;;;7.94;100.00;99113.81;6250114;28;20038;-77
2024/03/29 03:39:05;;;;;;;5.75;0.40;;;;;;;7.97;100.00;99128.50;6249959;28;20046;-77
2024/03/29 03:42:07;;;;;;;2.28;0.57;;;;;;;8.05;100.00;99129.63;6243888;28;20054;-77
2024/03/29 03:45:08;;;;;;;5.65;0.75;;;;;;;8.17;100.00;99120.09;6243039;28;20056;-76
2024/03/29 03:48:11;;;;;;;1.85;0.40;;;;;;;8.19;100.00;99122.63;6250100;28;20053;-77
2024/03/29 03:51:11;;;;;;;1.80;0.50;;;;;;;8.12;100.00;99124.81;6241687;28;20081;-78
2024/03/29 03:54:13;;;;;;;2.08;0.60;;;;;;;8.19;100.00;99112.16;6249721;28;20067;-77
2024/03/29 03:57:14;;;;;;;2.05;0.57;;;;;;;8.16;100.00;99118.41;6249730;28;20068;-77
2024/03/29 04:00:18;;;;;;;2.35;0.50;;;;;;;8.18;100.00;99118.34;6226483;28;20085;-78
2024/03/29 04:03:18;;;;;;;1.13;0.60;;;;;;;8.18;100.00;99107.88;6243607;28;20049;-77
2024/03/29 04:06:20;;;;;;;1.10;0.57;;;;;;;8.13;100.00;99113.41;6243102;28;20133;-77
2024/03/29 04:09:21;;;;;;;5.20;0.70;;;;;;;8.13;100.00;99119.47;6249655;28;20045;-77
2024/03/29 04:12:23;;;;;;;4.15;0.70;;;;;;;8.23;100.00;99126.69;6248302;28;20057;-77
2024/03/29 04:15:24;;;;;;;0.55;0.40;;;;;;;8.29;100.00;99129.72;6247264;28;20083;-78
2024/03/29 04:18:26;;;;;;;1.23;0.68;;;;;;;8.26;100.00;99129.91;6243728;28;20057;-76
2024/03/29 04:21:26;;;;;;;1.08;0.45;;;;;;;8.25;100.00;99141.31;6252824;28;20072;-78
2024/03/29 04:24:29;;;;;;;2.30;0.55;;;;;;;8.29;100.00;99145.41;6254320;28;20041;-78
2024/03/29 04:27:31;;;;;;;0.30;0.22;;;;;;;8.37;100.00;99139.69;6250060;28;20130;-77
2024/03/29 04:30:32;;;;;;;2.38;0.85;;;;;;;8.39;100.00;99137.78;6240325;28;20054;-77
2024/03/29 04:33:32;;;;;;;5.60;0.63;;;;;;;8.43;100.00;99144.47;6253522;28;20068;-76
2024/03/29 04:36:34;;;;;;;2.83;0.40;;;;;;;8.49;100.00;99164.97;6253602;28;20045;-77
2024/03/29 04:39:35;;;;;;;3.53;0.40;;;;;;;8.51;100.00;99144.78;6237637;28;20045;-76
2024/03/29 04:42:38;;;;;;;1.10;0.40;;;;;;;8.53;100.00;99132.41;6234451;28;20082;-78
2024/03/29 04:45:39;;;;;;;1.25;0.52;;;;;;;8.55;100.00;99132.31;6246244;28;20053;-78
2024/03/29 04:48:42;;;;;;;0.47;0.38;;;;;;;8.51;100.00;99136.94;6245177;28;20355;-78
2024/03/29 04:51:44;;;;;;;1.42;0.65;;;;;;;8.61;100.00;99147.59;6253467;28;20048;-78
2024/03/29 04:54:45;;;;;;;1.75;0.43;;;;;;;8.55;100.00;99156.72;6253315;28;20045;-79
2024/03/29 04:57:48;;;;;;;0.88;0.38;;;;;;;8.55;100.00;99153.25;6253558;28;20049;-77
2024/03/29 05:00:50;;;;;;;0.90;0.47;;;;;;;8.63;100.00;99159.63;6252942;28;20073;-77
2024/03/29 05:03:52;;;;;;;2.72;0.90;;;;;;;8.62;100.00;99160.56;6253189;28;20049;-77
2024/03/29 05:06:54;;;;;;;3.15;0.75;;;;;;;8.63;100.00;99170.09;6253246;28;20168;-76
2024/03/29 05:09:55;;;;;;;0.70;0.50;;;;;;;8.68;100.00;99182.03;6252655;28;20115;-76
2024/03/29 05:12:58;;;;;;;5.55;0.93;;;;;;;8.75;100.00;99184.09;6245606;28;20119;-77
2024/03/29 05:15:59;;;;;;;1.33;0.70;;;;;;;8.83;100.00;99183.56;6252182;28;20037;-78
2024/03/29 05:19:01;;;;;;;6.00;1.50;;;;;;;8.81;100.00;99188.91;6252915;28;20056;-78
2024/03/29 05:22:02;;;;;;;2.10;1.17;;;;;;;8.87;100.00;99203.34;6252063;28;20049;-77
2024/03/29 05:25:04;;;;;;;2.80;1.30;;;;;;;8.96;100.00;99201.88;6252794;28;20046;-77
2024/03/29 05:28:07;;;;;;;8.32;1.88;;;;;;;8.95;100.00;99208.03;6252388;28;20134;-77
2024/03/29 05:31:14;;;;;;;2.47;1.50;;;;;;;8.97;100.00;99214.84;6238398;28;20350;-78
2024/03/29 05:34:15;;;;;;;2.65;1.42;;;;;;;9.07;100.00;99221.09;6252600;28;20120;-76
2024/03/29 05:37:18;;;;;;;9.38;2.17;;;;;;;9.20;100.00;99214.97;6252479;28;20048;-77
2024/03/29 05:40:21;;;;;;;5.50;1.60;;;;;;;9.19;100.00;99224.63;6252449;28;20130;-77
2024/03/29 05:43:24;;;;;;;6.47;2.17;;;;;;;9.18;100.00;99222.13;6235263;28;20053;-77
2024/03/29 05:46:25;;;;;;;3.42;1.67;;;;;;;9.24;100.00;99237.41;6251043;28;20037;-77
2024/03/29 05:49:26;;;;;;;3.30;1.60;;;;;;;9.29;100.00;99240.53;6245235;28;20069;-77
2024/03/29 05:52:28;;;;;;;6.35;1.50;;;;;;;9.35;100.00;99240.91;6250788;28;20331;-77
2024/03/29 05:55:29;;;;;;;3.72;1.25;;;;;;;9.42;100.00;99275.41;6251899;28;20445;-77
2024/03/29 05:58:32;;;;;;;2.80;1.20;;;;;;;9.45;100.00;99254.22;6268090;22;20369;-81
2024/03/29 06:01:34;;;;;;;1.55;0.93;;;;;;;9.44;100.00;99249.91;6265018;28;20048;-80
2024/03/29 06:04:37;;;;;;;6.22;1.10;;;;;;;9.48;100.00;99261.84;6260059;28;20042;-79
2024/03/29 06:07:38;;;;;;;2.40;0.63;;;;;;;9.50;100.00;99282.72;6270865;28;20077;-82
2024/03/29 06:10:39;;;;;;;1.17;0.70;;;;;;;9.53;100.00;99288.56;6257405;28;20053;-78
2024/03/29 06:20:20;;;;;;;1.55;0.63;;;;;;;9.51;100.00;99300.13;6246873;28;20049;-80
2024/03/29 06:23:22;;;;;;;1.83;0.90;;;;;;;9.40;100.00;99308.75;6252976;28;20049;-79
2024/03/29 06:26:24;;;;;;;6.13;0.80;;;;;;;9.32;100.00;99325.03;6259174;28;20128;-81
2024/03/29 06:29:27;;;;;;;2.75;0.57;;;;;;;9.18;100.00;99319.94;6254019;28;20103;-82
2024/03/29 06:32:28;;;;;;;5.05;0.70;;;;;;;9.03;100.00;99293.00;6253776;28;20045;-80
2024/03/29 06:35:29;;;;;;;1.35;0.52;;;;;;;9.00;100.00;99284.56;6258855;28;20045;-80
2024/03/29 06:38:31;;;;;;;7.68;0.80;;;;;;;8.88;100.00;99275.75;6252524;28;20041;-81
2024/03/29 06:41:32;;;;;;;3.90;0.70;;;;;;;8.80;100.00;99284.13;6267419;28;20045;-82
2024/03/29 06:44:36;;;;;;;0.68;0.55;;;;;;;8.79;100.00;99285.09;6254008;28;20414;-80
2024/03/29 06:47:37;;;;;;;6.28;0.80;;;;;;;8.79;100.00;99282.47;6243686;28;20109;-80
2024/03/29 06:50:40;;;;;;;2.10;0.50;;;;;;;8.78;100.00;99264.25;6252318;28;20362;-80
2024/03/29 06:53:41;;;;;;;3.03;0.93;;;;;;;8.72;100.00;99260.28;6260405;28;20045;-81
2024/03/29 06:56:43;;;;;;;1.23;0.70;;;;;;;8.73;100.00;99256.72;6258362;28;20045;-78
2024/03/29 06:59:45;;;;;;;1.42;0.70;;;;;;;8.74;100.00;99249.69;6244297;28;20050;-80
2024/03/29 07:02:47;;;;;;;1.52;0.40;;;;;;;8.77;100.00;99257.34;6251055;28;20046;-79
2024/03/29 07:05:48;;;;;;;1.95;0.50;;;;;;;8.76;100.00;99259.09;6250737;28;20045;-80
2024/03/29 07:08:50;;;;;;;2.17;0.73;;;;;;;8.73;100.00;99259.34;6251147;28;20057;-79
2024/03/29 07:11:52;;;;;;;2.40;0.45;;;;;;;8.72;100.00;99256.81;6251828;28;20049;-79
2024/03/29 07:14:55;;;;;;;1.00;0.50;;;;;;;8.67;100.00;99244.03;6257364;28;20049;-80
2024/03/29 07:17:58;;;;;;;3.08;0.68;;;;;;;8.64;100.00;99232.00;6267079;28;20045;-80
2024/03/29 07:20:59;;;;;;;1.95;0.40;;;;;;;8.68;100.00;99234.41;6256012;28;20052;-80
2024/03/29 07:24:01;;;;;;;3.42;0.28;;;;;;;8.54;100.00;99211.78;6258738;28;20053;-79
2024/03/29 07:27:02;;;;;;;1.58;0.35;;;;;;;8.58;100.00;99214.09;6259155;28;20050;-80
2024/03/29 07:30:07;;;;;;;1.02;0.65;;;;;;;8.47;100.00;99211.38;6250646;28;20057;-79
2024/03/29 07:33:09;;;;;;;3.38;0.50;;;;;;;8.57;100.00;99216.81;6242700;28;20053;-79
2024/03/29 07:36:10;;;;;;;1.98;0.47;;;;;;;8.39;100.00;99219.75;6261026;28;20104;-79
2024/03/29 07:39:12;;;;;;;0.55;0.45;;;;;;;8.45;100.00;99215.91;6250401;28;20452;-79
2024/03/29 07:42:13;;;;;;;2.22;1.05;;;;;;;8.39;100.00;99204.06;6257629;28;20052;-81
2024/03/29 07:45:16;;;;;;;3.42;0.65;;;;;;;8.47;100.00;99202.69;6261861;28;20445;-81
2024/03/29 07:48:19;;;;;;;2.28;0.85;;;;;;;8.48;100.00;99194.72;6263833;28;20049;-81
2024/03/29 07:51:20;;;;;;;4.60;0.70;;;;;;;8.46;100.00;99196.63;6269284;28;20426;-81
2024/03/29 07:54:22;;;;;;;4.57;0.50;;;;;;;8.49;100.00;99198.19;6249853;28;20049;-81
2024/03/29 07:57:23;;;;;;;0.75;0.50;;;;;;;8.51;100.00;99199.75;6255182;28;20044;-79
2024/03/29 08:00:26;;;;;;;3.47;0.70;;;;;;;8.59;100.00;99192.22;6257050;28;20335;-82
2024/03/29 08:03:28;;;;;;;3.83;0.73;;;;;;;8.54;100.00;99194.31;6271021;28;20081;-81
2024/03/29 08:06:29;;;;;;;0.98;0.40;;;;;;;8.66;100.00;99194.38;6244967;28;20045;-82
2024/03/29 08:09:31;;;;;;;1.95;0.45;;;;;;;8.60;100.00;99187.81;6253992;28;20049;-82
2024/03/29 08:12:32;;;;;;;1.30;0.38;;;;;;;8.58;100.00;99192.31;6254695;28;20057;-81
2024/03/29 08:15:35;;;;;;;1.80;0.43;;;;;;;8.63;100.00;99184.97;6251232;28;20131;-82
2024/03/29 08:18:36;;;;;;;1.10;0.47;;;;;;;8.71;100.00;99184.44;6263016;28;20447;-82
2024/03/29 08:21:38;;;;;;;3.67;0.65;;;;;;;8.63;100.00;99183.19;6239003;28;20053;-80
2024/03/29 08:24:39;;;;;;;0.77;0.50;;;;;;;8.70;100.00;99185.38;6246431;28;20045;-81
2024/03/29 08:27:41;;;;;;;1.13;0.55;;;;;;;8.84;100.00;99177.38;6238513;28;20061;-80
2024/03/29 08:30:43;;;;;;;1.27;0.63;;;;;;;8.95;100.00;99184.44;6246362;28;20050;-80
2024/03/29 08:33:45;;;;;;;2.13;0.50;;;;;;;8.90;100.00;99166.44;6231169;28;20042;-79
2024/03/29 08:36:47;;;;;;;2.75;0.47;;;;;;;8.85;100.00;99179.88;6230722;28;20077;-80
2024/03/29 08:39:48;;;;;;;1.92;0.77;;;;;;;8.98;100.00;99192.94;6255428;28;20359;-80
2024/03/29 08:42:49;;;;;;;4.72;0.75;;;;;;;8.96;100.00;99184.38;6252938;28;20041;-80
2024/03/29 08:45:53;;;;;;;6.03;0.55;;;;;;;9.11;100.00;99195.50;6247161;28;20054;-81
2024/03/29 08:48:54;;;;;;;0.57;0.32;;;;;;;9.13;100.00;99217.22;6232939;28;20053;-80
2024/03/29 08:51:57;;;;;;;0.57;0.38;;;;;;;9.11;100.00;99201.59;6252443;28;20132;-80
2024/03/29 08:54:58;;;;;;;2.50;0.80;;;;;;;9.19;100.00;99197.59;6250961;28;20445;-81
2024/03/29 08:58:02;;;;;;;4.93;1.10;;;;;;;9.25;100.00;99202.38;6236781;28;20053;-82
2024/03/29 09:01:05;;;;;;;2.15;1.00;;;;;;;9.18;100.00;99206.41;6244509;28;20088;-82
2024/03/29 09:04:10;;;;;;;2.35;0.60;;;;;;;9.28;100.00;99197.75;6250484;28;20454;-83
2024/03/29 09:07:11;;;;;;;6.03;0.88;;;;;;;9.27;100.00;99203.13;6241365;28;20442;-82
2024/03/29 09:10:15;;;;;;;4.07;0.80;;;;;;;9.22;100.00;99198.22;6253175;28;20449;-82
2024/03/29 09:13:16;;;;;;;5.63;1.13;;;;;;;9.31;100.00;99196.69;6259976;28;20037;-81
2024/03/29 09:16:19;;;;;;;0.90;0.47;;;;;;;9.40;100.00;99198.63;6245297;28;20041;-80
2024/03/29 09:19:20;;;;;;;1.85;0.55;;;;;;;9.44;100.00;99191.38;6228715;28;20471;-83
2024/03/29 09:22:22;;;;;;;5.20;0.80;;;;;;;9.48;100.00;99164.81;6250902;28;20362;-83
2024/03/29 09:25:23;;;;;;;1.60;0.80;;;;;;;9.61;100.00;99170.00;6254027;28;20048;-83
2024/03/29 09:28:26;;;;;;;1.38;0.70;;;;;;;9.70;100.00;99169.31;6247416;28;20053;-83
2024/03/29 09:31:29;;;;;;;1.48;0.70;;;;;;;9.85;100.00;99175.19;6253267;28;20136;-83
2024/03/29 09:34:31;;;;;;;2.08;0.73;;;;;;;10.06;100.00;99170.09;6254994;28;20057;-84
2024/03/29 09:37:35;;;;;;;1.63;0.85;;;;;;;10.23;100.00;99172.28;6244735;28;20450;-83
2024/03/29 09:40:37;;;;;;;3.60;0.90;;;;;;;10.37;100.00;99158.94;6237427;28;20048;-82
2024/03/29 09:43:41;;;;;;;1.77;0.73;;;;;;;10.63;100.00;99158.69;6244270;28;20050;-83
2024/03/29 09:46:44;;;;;;;1.20;0.82;;;;;;;10.73;100.00;99164.06;6261252;28;20045;-84
2024/03/29 09:49:50;;;;;;;6.03;1.50;;;;;;;10.79;100.00;99156.50;6245317;28;20052;-83
2024/03/29 09:52:51;;;;;;;1.67;0.80;;;;;;;10.86;100.00;99143.72;6253054;28;20057;-84
2024/03/29 09:55:53;;;;;;;4.82;0.98;;;;;;;10.89;100.00;99151.34;6244342;28;20041;-84
2024/03/29 09:58:54;;;;;;;3.10;0.80;;;;;;;10.94;100.00;99162.31;6252440;28;20049;-82
2024/03/29 10:01:59;;;;;;;1.73;0.75;;;;;;;10.88;100.00;99162.81;6236328;28;20057;-84
2024/03/29 10:05:06;;;;;;;6.80;1.20;;;;;;;10.99;100.00;99154.94;6250168;28;20357;-83
2024/03/29 10:08:07;;;;;;;2.08;1.15;;;;;;;11.10;100.00;99167.19;6242640;28;20132;-81
2024/03/29 10:11:09;;;;;;;1.00;0.90;;;;;;;11.03;100.00;99161.56;6248004;28;20049;-84
2024/03/29 10:14:11;;;;;;;1.40;0.63;;;;;;;11.10;100.00;99157.50;6248788;28;20065;-82
2024/03/29 10:17:13;;;;;;;4.07;0.70;;;;;;;11.15;100.00;99160.59;6254704;28;20049;-82
2024/03/29 10:20:16;;;;;;;1.48;0.60;;;;;;;11.29;100.00;99167.34;6249125;28;20052;-82
2024/03/29 10:23:18;;;;;;;2.45;0.93;;;;;;;11.32;100.00;99171.56;6253763;28;20049;-82
2024/03/29 10:26:19;;;;;;;1.45;0.45;;;;;;;11.39;100.00;99162.19;6252465;28;20048;-82
2024/03/29 10:29:21;;;;;;;0.90;0.57;;;;;;;11.51;100.00;99168.25;6251310;28;20064;-80
2024/03/29 10:32:24;;;;;;;3.33;0.57;;;;;;;11.55;100.00;99159.97;6245792;28;20350;-80
2024/03/29 10:35:25;;;;;;;1.05;0.60;;;;;;;11.58;100.00;99164.97;6249870;28;20049;-82
2024/03/29 10:38:27;;;;;;;1.45;0.57;;;;;;;11.76;100.00;99151.22;6256203;28;20037;-81
2024/03/29 10:41:30;;;;;;;0.82;0.65;;;;;;;11.86;100.00;99171.44;6244826;28;20053;-82
2024/03/29 10:44:32;;;;;;;1.02;0.47;;;;;;;12.09;100.00;99172.13;6233715;28;20046;-80
2024/03/29 10:47:35;;;;;;;0.85;0.40;;;;;;;12.29;100.00;99180.13;6241564;28;20123;-81
2024/03/29 10:50:39;;;;;;;4.85;0.60;;;;;;;12.35;100.00;99175.19;6239030;28;20129;-80
2024/03/29 10:53:42;;;;;;;0.73;0.52;;;;;;;12.40;100.00;99187.97;6228524;28;20068;-81
2024/03/29 10:56:52;;;;;;;0.40;0.40;;;;;;;12.35;100.00;99176.94;6226151;28;20049;-80
2024/03/29 11:00:04;;;;;;;1.77;0.60;;;;;;;12.30;100.00;99189.69;6229139;28;20050;-81
2024/03/29 11:03:15;;;;;;;0.75;0.50;;;;;;;12.22;100.00;99193.00;6229563;28;20046;-82
2024/03/29 11:06:23;;;;;;;0.40;0.40;;;;;;;12.14;100.00;99195.44;6239207;28;20045;-83
2024/03/29 11:09:29;;;;;;;0.98;0.60;;;;;;;12.11;100.00;99196.53;6259094;28;20444;-82
2024/03/29 11:12:34;;;;;;;1.27;0.47;;;;;;;12.07;100.00;99192.47;6264861;28;20049;-82
2024/03/29 11:15:38;;;;;;;0.65;0.40;;;;;;;12.28;100.00;99197.72;6268571;28;20049;-82
2024/03/29 11:18:41;;;;;;;3.72;0.63;;;;;;;12.18;100.00;99204.75;6246349;28;20053;-82
2024/03/29 11:21:45;;;;;;;0.57;0.40;;;;;;;12.14;100.00;99212.06;6241990;28;20042;-80
2024/03/29 11:24:48;;;;;;;0.98;0.70;;;;;;;12.07;100.00;99223.25;6241618;28;20364;-81
2024/03/29 11:27:49;;;;;;;1.50;0.50;;;;;;;12.08;100.00;99224.91;6241265;28;20041;-82
2024/03/29 11:30:51;;;;;;;0.88;0.70;;;;;;;12.03;100.00;99229.72;6247627;28;20084;-81
2024/03/29 11:33:57;;;;;;;2.53;1.52;;;;;;;11.92;100.00;99234.09;6249078;28;20049;-81
2024/03/29 11:37:07;;;;;;;2.35;0.73;;;;;;;11.88;100.00;99226.56;6248904;28;20079;-80
2024/03/29 11:40:12;;;;;;;1.10;0.50;;;;;;;11.87;100.00;99224.91;6246171;28;20052;-82
2024/03/29 11:43:13;;;;;;;3.17;0.63;;;;;;;11.88;100.00;99210.78;6239446;28;20046;-82
2024/03/29 11:46:15;;;;;;;2.25;0.60;;;;;;;11.91;100.00;99216.63;6236908;28;20450;-82
2024/03/29 11:49:18;;;;;;;2.85;0.88;;;;;;;11.95;100.00;99216.38;6232257;28;20046;-81
2024/03/29 11:52:19;;;;;;;2.50;0.50;;;;;;;11.97;100.00;99211.81;6233645;28;20450;-82
2024/03/29 11:55:22;;;;;;;1.52;0.73;;;;;;;12.02;100.00;99207.81;6237748;28;20042;-82
2024/03/29 11:58:24;;;;;;;4.97;0.80;;;;;;;12.04;100.00;99199.81;6238725;28;20068;-82
2024/03/29 12:01:27;;;;;;;0.90;0.70;;;;;;;12.01;100.00;99187.72;6243464;28;20046;-82
2024/03/29 12:04:29;;;;;;;1.17;0.63;;;;;;;11.96;100.00;99191.72;6235023;28;20135;-82
2024/03/29 12:07:31;;;;;;;2.28;0.70;;;;;;;12.00;100.00;99199.25;6242304;28;20041;-84
2024/03/29 12:10:32;;;;;;;1.15;0.60;;;;;;;11.93;100.00;99213.88;6250074;28;20042;-83
2024/03/29 12:13:34;;;;;;;0.88;0.60;;;;;;;11.89;100.00;99226.44;6233053;28;20359;-78
2024/03/29 12:16:43;;;;;;;1.45;0.88;;;;;;;11.86;100.00;99225.88;6232867;28;20046;-75
2024/03/29 12:19:48;;;;;;;3.42;0.90;;;;;;;11.91;100.00;99244.75;6234163;28;20446;-76
2024/03/29 12:22:49;;;;;;;2.15;0.80;;;;;;;12.02;100.00;99241.22;6246830;28;20053;-75
2024/03/29 12:25:55;;;;;;;0.98;0.80;;;;;;;11.96;100.00;99244.38;6247270;28;20053;-76
2024/03/29 12:28:56;;;;;;;2.90;1.05;;;;;;;12.01;100.00;99255.34;6248648;28;20061;-77
2024/03/29 12:31:59;;;;;;;1.55;1.00;;;;;;;12.05;100.00;99262.03;6251570;28;20449;-77
2024/03/29 12:35:09;;;;;;;1.30;1.20;;;;;;;12.15;100.00;99249.78;6253559;28;20049;-77
2024/03/29 12:38:12;;;;;;;1.25;0.70;;;;;;;12.17;100.00;99253.09;6253109;28;20092;-77
2024/03/29 12:41:14;;;;;;;3.42;0.68;;;;;;;12.20;100.00;99239.69;6253242;28;20048;-76
2024/03/29 12:44:15;;;;;;;0.98;0.52;;;;;;;12.17;100.00;99253.09;6252116;28;20153;-79
2024/03/29 12:47:17;;;;;;;1.33;0.60;;;;;;;12.17;100.00;99272.41;6252745;28;20045;-79
2024/03/29 12:50:27;;;;;;;1.25;0.77;;;;;;;12.05;100.00;99291.84;6253537;28;20045;-80
2024/03/29 12:53:30;;;;;;;0.95;0.68;;;;;;;12.01;100.00;99281.69;6253453;28;20054;-80
2024/03/29 12:56:31;;;;;;;2.75;1.00;;;;;;;11.88;100.00;99287.94;6257934;28;20320;-82
2024/03/29 12:59:34;;;;;;;1.17;0.70;;;;;;;11.85;100.00;99288.19;6238154;28;20446;-81
2024/03/29 13:02:36;;;;;;;1.95;0.80;;;;;;;11.86;100.00;99281.16;6245603;28;20438;-79
2024/03/29 13:05:41;;;;;;;1.77;0.70;;;;;;;11.92;100.00;99283.28;6236069;28;20465;-79
2024/03/29 13:08:42;;;;;;;4.07;0.88;;;;;;;11.96;100.00;99297.88;6236724;28;20394;-80
2024/03/29 13:11:43;;;;;;;2.70;1.05;;;;;;;12.10;100.00;99289.66;6231405;28;20065;-79
2024/03/29 13:14:45;;;;;;;1.70;0.75;;;;;;;12.29;100.00;99296.03;6237866;28;20442;-79
2024/03/29 13:17:49;;;;;;;1.20;1.00;;;;;;;12.38;100.00;99305.78;6238463;28;20046;-79
2024/03/29 13:20:51;;;;;;;2.75;1.00;;;;;;;12.56;100.00;99296.34;6251734;28;20045;-79
2024/03/29 13:23:53;;;;;;;2.30;0.95;;;;;;;12.73;100.00;99313.34;6236156;28;20075;-79
2024/03/29 13:26:54;;;;;;;2.70;0.80;;;;;;;12.79;100.00;99298.81;6243196;28;20041;-78
2024/03/29 13:29:55;;;;;;;1.80;0.88;;;;;;;12.81;100.00;99295.09;6241612;28;20450;-78
2024/03/29 13:32:57;;;;;;;3.45;1.08;;;;;;;12.77;100.00;99295.47;6237017;28;20049;-79
2024/03/29 13:36:00;;;;;;;8.00;1.17;;;;;;;12.72;100.00;99305.56;6230791;28;20127;-79
2024/03/29 13:39:01;;;;;;;2.75;1.23;;;;;;;12.68;100.00;99310.28;6228879;28;20054;-80
2024/03/29 13:42:03;;;;;;;2.15;1.08;;;;;;;12.68;100.00;99290.03;6238229;28;20060;-79
2024/03/29 13:45:05;;;;;;;2.58;0.80;;;;;;;12.77;100.00;99298.94;6248815;28;20457;-79
2024/03/29 13:48:08;;;;;;;2.95;1.02;;;;;;;12.91;100.00;99295.13;6238964;28;20517;-79
2024/03/29 13:51:11;;;;;;;3.25;1.27;;;;;;;12.92;100.00;99289.72;6242461;28;20072;-79
2024/03/29 13:54:12;;;;;;;5.25;1.95;;;;;;;12.89;100.00;99284.69;6247049;28;20560;-79
2024/03/29 13:57:13;;;;;;;5.75;1.17;;;;;;;12.99;100.00;99281.25;6243781;28;20046;-79
2024/03/29 14:00:18;;;;;;;1.20;0.80;;;;;;;13.21;100.00;99292.44;6246440;28;20050;-79
2024/03/29 14:03:19;;;;;;;28.50;7.47;;;;;;;13.29;100.00;99294.44;6247802;28;20122;-78
2024/03/29 14:06:22;;;;;;;46.22;14.90;;;;;;;13.35;100.00;99293.06;6248268;28;20052;-80
2024/03/29 14:09:23;;;;;;;20.95;7.20;;;;;;;13.45;100.00;99291.31;6251329;28;20045;-76
2024/03/29 14:12:25;;;;;;;8.52;2.65;;;;;;;13.52;100.00;99297.69;6248756;28;20357;-78
2024/03/29 14:15:27;;;;;;;4.25;1.63;;;;;;;13.53;100.00;99296.72;6246657;28;20052;-78
2024/03/29 14:18:28;;;;;;;2.58;1.48;;;;;;;13.61;100.00;99286.31;6246622;28;20037;-78
2024/03/29 14:21:31;;;;;;;8.68;4.20;;;;;;;13.66;100.00;99292.00;6247457;28;20055;-78
2024/03/29 14:24:35;;;;;;;20.90;11.68;;;;;;;13.67;100.00;99295.47;6250697;28;20045;-78
2024/03/29 14:27:45;;;;;;;8.07;4.35;;;;;;;13.60;100.00;99297.84;6239804;28;20046;-82
2024/03/29 14:30:47;;;;;;;1.67;0.68;;;;;;;13.39;100.00;99312.94;6250482;28;20045;-78
2024/03/29 14:33:48;;;;;;;3.70;0.93;;;;;;;13.30;100.00;99295.28;6245702;28;20049;-78
2024/03/29 14:36:51;;;;;;;1.92;0.88;;;;;;;13.30;100.00;99295.28;6251127;28;20053;-78
2024/03/29 14:39:53;;;;;;;3.63;0.98;;;;;;;13.25;100.00;99294.84;6250569;28;20053;-77
2024/03/29 14:42:54;;;;;;;1.48;0.70;;;;;;;13.21;100.00;99288.97;6244622;28;20054;-78
2024/03/29 14:45:56;;;;;;;0.88;0.70;;;;;;;13.15;100.00;99286.88;6242351;28;20179;-77
2024/03/29 14:48:57;;;;;;;1.83;0.85;;;;;;;13.15;100.00;99292.16;6246996;28;20041;-77
2024/03/29 14:52:00;;;;;;;1.60;0.73;;;;;;;13.12;100.00;99282.69;6236179;28;20053;-78
2024/03/29 14:55:01;;;;;;;1.00;0.80;;;;;;;13.05;100.00;99280.75;6239886;28;20045;-77
2024/03/29 14:58:03;;;;;;;2.20;1.08;;;;;;;13.07;100.00;99271.72;6231071;28;20397;-76
2024/03/29 15:01:05;;;;;;;1.77;0.98;;;;;;;13.02;100.00;99273.09;6232973;28;20053;-77
2024/03/29 15:04:06;;;;;;;3.03;1.23;;;;;;;13.04;100.00;99303.66;6238751;28;20506;-77
2024/03/29 15:07:09;;;;;;;0.70;0.60;;;;;;;13.08;100.00;99305.06;6236443;28;20053;-77
2024/03/29 15:10:11;;;;;;;0.90;0.60;;;;;;;13.07;100.00;99300.72;6234816;28;20046;-77
2024/03/29 15:13:13;;;;;;;1.90;0.60;;;;;;;13.18;100.00;99305.09;6248330;28;20045;-77
2024/03/29 15:16:14;;;;;;;2.28;1.00;;;;;;;13.27;100.00;99304.31;6238234;28;20053;-77
2024/03/29 15:19:16;;;;;;;2.35;0.95;;;;;;;13.37;100.00;99304.34;6232590;28;20042;-77
2024/03/29 15:22:18;;;;;;;1.27;0.90;;;;;;;13.21;100.00;99310.06;6233947;28;20068;-76
2024/03/29 15:25:20;;;;;;;2.00;0.80;;;;;;;13.20;100.00;99332.16;6233490;28;20050;-79
2024/03/29 15:31:43;;;;;;;3.00;1.30;;;;;;;12.94;100.00;99337.91;6240231;28;20402;-78
2024/03/29 15:34:44;;;;;;;1.70;0.85;;;;;;;12.85;100.00;99324.63;6237342;28;20049;-79
2024/03/29 15:37:48;;;;;;;1.50;0.80;;;;;;;12.80;100.00;99340.00;6239262;28;20054;-78
2024/03/29 15:40:54;;;;;;;3.25;0.80;;;;;;;12.69;100.00;99330.41;6227386;28;20046;-79
2024/03/29 15:43:57;;;;;;;2.08;0.80;;;;;;;12.70;100.00;99314.44;6232622;28;20384;-80
2024/03/29 15:46:59;;;;;;;4.45;1.30;;;;;;;12.76;100.00;99338.59;6240746;28;20055;-77
2024/03/29 15:50:00;;;;;;;2.08;1.08;;;;;;;12.73;100.00;99347.63;6235940;28;20354;-77
2024/03/29 15:53:04;;;;;;;0.95;0.77;;;;;;;12.76;100.00;99349.97;6234862;28;20053;-75
2024/03/29 15:56:07;;;;;;;1.98;1.00;;;;;;;12.77;100.00;99343.75;6228038;28;20089;-78
2024/03/29 15:59:09;;;;;;;3.17;1.20;;;;;;;12.74;100.00;99346.66;6242679;28;20122;-81
2024/03/29 16:02:11;;;;;;;1.75;1.33;;;;;;;12.74;100.00;99359.00;6245410;28;20049;-81
2024/03/29 16:05:12;;;;;;;2.10;1.60;;;;;;;12.76;100.00;99338.59;6241846;28;20045;-80
2024/03/29 16:08:15;;;;;;;4.32;1.55;;;;;;;12.88;100.00;99348.13;6249301;28;20049;-80